Time;durP1;ratioP1;P1;durP2;ratioP2;P2;SDS_P1;SDS_P2;PMS_P1;PMS_P2;Temp;Humidity;BMP_temperature;BMP_pressure;BME280_temperature;BME280_humidity;BME280_pressure;Samples;Min_cycle;Max_cycle;Signal;HPM_P1;HPM_P2
2022/06/01 00:00:57;;;;;;;7.65;3.22;;;;;;;14.57;100.00;98522.19;4257531;33;20064;-70
2022/06/01 00:03:24;;;;;;;5.05;2.90;;;;;;;14.31;100.00;98471.00;4257729;33;20083;-71
2022/06/01 00:05:51;;;;;;;2.97;2.60;;;;;;;14.17;100.00;98466.28;4257277;33;20429;-71
2022/06/01 00:08:18;;;;;;;8.38;3.00;;;;;;;14.12;100.00;98487.19;4255851;33;20034;-72
2022/06/01 00:10:44;;;;;;;3.35;2.60;;;;;;;14.03;100.00;98478.88;4257373;33;20939;-70
2022/06/01 00:13:11;;;;;;;2.67;2.53;;;;;;;14.53;100.00;98520.06;4235115;33;20074;-71
2022/06/01 00:15:37;;;;;;;3.03;2.33;;;;;;;14.44;100.00;98518.25;4230750;33;20039;-72
2022/06/01 00:18:03;;;;;;;4.22;2.65;;;;;;;14.28;100.00;98471.56;4257552;33;20046;-71
2022/06/01 00:20:30;;;;;;;4.22;3.83;;;;;;;14.38;100.00;98525.66;4255258;33;20480;-73
2022/06/01 00:22:56;;;;;;;2.90;2.70;;;;;;;14.04;100.00;98488.62;4242888;33;20046;-72
2022/06/01 00:25:24;;;;;;;3.92;2.67;;;;;;;14.55;100.00;98527.91;4256979;33;20365;-72
2022/06/01 00:27:51;;;;;;;3.05;2.70;;;;;;;14.74;100.00;98521.75;4257058;33;20076;-71
2022/06/01 00:30:19;;;;;;;2.60;2.40;;;;;;;14.37;100.00;98474.47;4243453;33;20405;-72
2022/06/01 00:32:45;;;;;;;3.03;2.83;;;;;;;14.43;100.00;98481.44;4256695;33;20058;-71
2022/06/01 00:35:13;;;;;;;3.03;2.50;;;;;;;14.40;100.00;98509.09;4257056;33;20042;-71
2022/06/01 00:37:41;;;;;;;5.40;3.03;;;;;;;14.44;100.00;98492.00;4254024;33;20063;-71
2022/06/01 00:40:10;;;;;;;3.40;2.85;;;;;;;14.60;100.00;98522.47;4255056;33;20049;-72
2022/06/01 00:42:39;;;;;;;3.05;2.85;;;;;;;14.43;100.00;98484.97;4250615;33;20839;-70
2022/06/01 00:45:09;;;;;;;3.30;3.00;;;;;;;14.63;100.00;98534.59;4242886;33;20073;-70
2022/06/01 00:47:36;;;;;;;4.50;3.17;;;;;;;14.60;100.00;98533.31;4248068;33;20062;-70
2022/06/01 00:50:39;;;;;;;3.50;3.20;;;;;;;14.41;100.00;98525.06;4254662;33;20071;-73
2022/06/01 00:53:15;;;;;;;5.18;2.47;;;;;;;14.69;100.00;98525.31;4171916;34;20044;-71
2022/06/01 00:55:53;;;;;;;3.15;2.85;;;;;;;14.38;100.00;98471.47;4182908;34;20024;-71
2022/06/01 00:58:34;;;;;;;3.30;3.10;;;;;;;14.69;100.00;98520.75;4184530;34;20122;-70
2022/06/01 01:01:12;;;;;;;3.20;3.00;;;;;;;14.69;100.00;98487.41;4183874;34;20057;-71
2022/06/01 01:03:42;;;;;;;4.95;2.85;;;;;;;14.47;100.00;98453.50;4178137;34;20056;-70
2022/06/01 01:06:20;;;;;;;2.85;2.65;;;;;;;14.64;100.00;98506.44;4171507;34;20386;-70
2022/06/01 01:08:48;;;;;;;4.82;2.97;;;;;;;14.77;100.00;98500.28;4184853;34;20066;-70
2022/06/01 01:11:17;;;;;;;5.22;3.30;;;;;;;14.68;100.00;98505.56;4182842;34;20086;-72
2022/06/01 01:13:46;;;;;;;6.90;3.37;;;;;;;14.76;100.00;98504.12;4184682;34;20073;-69
2022/06/01 01:16:15;;;;;;;3.15;2.85;;;;;;;14.58;100.00;98491.28;4184119;34;20453;-70
2022/06/01 01:18:44;;;;;;;3.30;3.10;;;;;;;14.70;100.00;98516.13;4184494;34;20025;-70
2022/06/01 01:21:35;;;;;;;3.70;3.37;;;;;;;14.23;100.00;98471.63;4181431;34;20032;-72
2022/06/01 01:24:16;;;;;;;4.05;2.75;;;;;;;14.60;100.00;98516.22;4184174;34;20066;-71
2022/06/01 01:26:48;;;;;;;3.33;3.12;;;;;;;14.65;100.00;98516.19;4197480;33;20343;-73
2022/06/01 01:29:16;;;;;;;3.28;3.03;;;;;;;14.63;100.00;98505.63;4253913;33;20788;-69
2022/06/01 01:31:45;;;;;;;5.50;3.47;;;;;;;14.27;100.00;98486.22;4253673;33;20068;-70
2022/06/01 01:34:12;;;;;;;4.62;3.45;;;;;;;14.21;100.00;98517.97;4247889;33;20068;-70
2022/06/01 01:36:44;;;;;;;3.62;3.33;;;;;;;14.09;100.00;98523.75;4240451;33;20046;-72
2022/06/01 01:39:12;;;;;;;;;;;;;;;14.36;100.00;98552.22;4246247;33;20089;-71
2022/06/01 01:41:51;;;;;;;4.10;3.17;;;;;;;14.53;100.00;98563.41;4243161;33;19968;-71
2022/06/01 01:44:40;;;;;;;4.05;3.67;;;;;;;14.57;100.00;98576.37;4256141;33;20365;-71
2022/06/01 01:47:07;;;;;;;7.65;3.60;;;;;;;14.61;100.00;98550.34;4254389;33;20050;-71
2022/06/01 01:49:38;;;;;;;3.90;3.60;;;;;;;14.53;100.00;98570.72;4254952;33;20067;-70
2022/06/01 01:52:11;;;;;;;4.97;3.45;;;;;;;14.38;100.00;98525.66;4247745;33;20104;-72
2022/06/01 01:55:08;;;;;;;5.22;4.03;;;;;;;14.34;100.00;98540.84;4252149;33;20544;-71
2022/06/01 01:57:50;;;;;;;5.78;3.50;;;;;;;14.74;100.00;98575.94;4241012;33;20077;-71
2022/06/01 02:00:29;;;;;;;6.07;3.75;;;;;;;14.69;100.00;98579.53;4240992;33;20403;-71
2022/06/01 02:03:00;;;;;;;4.05;3.75;;;;;;;14.67;100.00;98576.31;4255834;33;20041;-71
2022/06/01 02:08:32;;;;;;;5.15;3.83;;;;;;;14.91;100.00;98570.06;4255886;33;20038;-71
2022/06/01 02:14:21;;;;;;;4.90;4.20;;;;;;;14.77;100.00;98554.50;4238973;33;20042;-72
2022/06/01 02:16:57;;;;;;;;;;;;;;;14.53;100.00;98522.78;4255455;33;20085;-70
2022/06/01 02:19:31;;;;;;;4.50;4.05;;;;;;;14.54;100.00;98562.31;4251082;33;19938;-70
2022/06/01 02:21:59;;;;;;;7.70;3.97;;;;;;;14.53;100.00;98552.59;4246212;33;20051;-73
2022/06/01 02:24:26;;;;;;;5.15;3.95;;;;;;;14.38;100.00;98535.69;4254752;33;20063;-71
2022/06/01 02:26:54;;;;;;;4.93;4.43;;;;;;;14.32;100.00;98505.13;4253697;33;20046;-71
2022/06/01 02:29:36;;;;;;;13.98;4.95;;;;;;;14.35;100.00;98499.13;4241677;33;20064;-71
2022/06/01 02:32:04;;;;;;;5.20;3.87;;;;;;;14.43;100.00;98538.34;4232699;33;20442;-71
2022/06/01 02:34:32;;;;;;;12.43;3.80;;;;;;;14.54;100.00;98537.94;4255537;33;20046;-70
2022/06/01 02:37:04;;;;;;;8.35;4.20;;;;;;;14.48;100.00;98536.34;4251492;33;20042;-71
2022/06/01 02:39:33;;;;;;;4.18;3.72;;;;;;;14.53;100.00;98549.88;4240549;33;20084;-73
2022/06/01 02:42:30;;;;;;;5.82;3.97;;;;;;;14.66;100.00;98553.81;4240360;33;20046;-71
2022/06/01 02:45:04;;;;;;;6.43;4.57;;;;;;;14.27;100.00;98497.06;4241434;33;20050;-73
2022/06/01 02:47:33;;;;;;;4.75;4.30;;;;;;;14.47;100.00;98540.19;4240616;33;20035;-72
2022/06/01 02:50:00;;;;;;;6.30;4.28;;;;;;;14.65;100.00;98551.41;4251791;33;20362;-71
2022/06/01 02:52:28;;;;;;;6.28;5.03;;;;;;;14.56;100.00;98548.47;4254963;33;20441;-71
2022/06/01 02:54:54;;;;;;;5.05;4.60;;;;;;;14.35;100.00;98553.31;4242458;33;20082;-71
2022/06/01 02:57:21;;;;;;;5.80;4.35;;;;;;;13.85;100.00;98501.22;4253051;33;20046;-71
2022/06/01 02:59:47;;;;;;;5.60;3.87;;;;;;;14.33;100.00;98550.06;4245082;33;20072;-72
2022/06/01 03:02:14;;;;;;;10.35;4.30;;;;;;;14.39;100.00;98548.94;4239299;33;20131;-71
2022/06/01 03:04:45;;;;;;;10.10;4.20;;;;;;;14.38;100.00;98563.56;4240982;33;20055;-71
2022/06/01 03:07:12;;;;;;;6.20;3.90;;;;;;;14.13;100.00;98524.78;4226462;33;20031;-70
2022/06/01 03:09:39;;;;;;;4.40;3.97;;;;;;;14.12;100.00;98517.78;4245272;33;20075;-71
2022/06/01 03:12:07;;;;;;;5.93;4.00;;;;;;;14.34;100.00;98552.50;4255337;33;20050;-71
2022/06/01 03:14:36;;;;;;;15.18;4.72;;;;;;;14.21;100.00;98552.34;4241009;33;20068;-71
2022/06/01 03:17:06;;;;;;;4.25;3.67;;;;;;;14.34;100.00;98557.09;4241297;33;20043;-71
2022/06/01 03:19:34;;;;;;;3.53;3.22;;;;;;;14.37;100.00;98556.53;4255040;33;20089;-71
2022/06/01 03:22:01;;;;;;;5.00;3.30;;;;;;;14.14;100.00;98561.63;4247470;33;20389;-70
2022/06/01 03:24:27;;;;;;;4.43;3.42;;;;;;;14.25;100.00;98553.37;4228618;33;20068;-72
2022/06/01 03:26:54;;;;;;;6.07;3.62;;;;;;;13.89;100.00;98507.72;4241780;33;20141;-71
2022/06/01 03:29:21;;;;;;;4.70;4.12;;;;;;;14.22;100.00;98551.28;4240664;33;20050;-70
2022/06/01 03:31:48;;;;;;;3.40;3.03;;;;;;;14.20;100.00;98556.16;4254624;33;20079;-72
2022/06/01 03:34:14;;;;;;;3.58;3.33;;;;;;;14.25;100.00;98559.63;4242169;33;20115;-72
2022/06/01 03:36:41;;;;;;;3.62;3.33;;;;;;;14.05;100.00;98517.28;4254516;33;20072;-71
2022/06/01 03:39:08;;;;;;;5.03;3.75;;;;;;;14.21;100.00;98558.56;4253790;33;20045;-72
2022/06/01 03:41:34;;;;;;;4.10;2.95;;;;;;;14.21;100.00;98568.59;4240755;33;20074;-71
2022/06/01 03:46:52;;;;;;;4.60;2.62;;;;;;;13.72;100.00;98513.50;4248367;33;20046;-72
2022/06/01 03:49:19;;;;;;;3.33;2.45;;;;;;;13.75;100.00;98521.91;4240444;33;20080;-72
2022/06/01 03:51:46;;;;;;;2.60;2.40;;;;;;;13.93;100.00;98571.81;4240011;33;20080;-71
2022/06/01 03:54:12;;;;;;;2.90;2.70;;;;;;;13.73;100.00;98553.81;4240605;33;20063;-70
2022/06/01 03:56:39;;;;;;;5.30;2.70;;;;;;;13.59;100.00;98552.84;4254625;33;20052;-70
2022/06/01 03:59:05;;;;;;;4.35;2.30;;;;;;;13.89;100.00;98572.66;4253893;33;20046;-73
2022/06/01 04:01:32;;;;;;;2.00;1.90;;;;;;;13.52;100.00;98531.53;4252942;33;20057;-71
2022/06/01 04:03:58;;;;;;;6.37;2.45;;;;;;;13.57;100.00;98519.88;4243245;33;20054;-71
2022/06/01 04:06:25;;;;;;;2.05;1.90;;;;;;;13.65;100.00;98530.06;4242898;33;20049;-70
2022/06/01 04:08:51;;;;;;;1.70;1.60;;;;;;;13.96;100.00;98567.72;4243469;33;20046;-72
2022/06/01 04:11:18;;;;;;;2.10;1.75;;;;;;;13.76;100.00;98558.66;4245761;33;20149;-72
2022/06/01 04:13:44;;;;;;;2.25;1.70;;;;;;;13.68;100.00;98550.34;4257249;33;20079;-71
2022/06/01 04:16:11;;;;;;;4.25;2.45;;;;;;;13.78;100.00;98555.69;4251473;33;20050;-71
2022/06/01 04:18:37;;;;;;;1.73;1.62;;;;;;;13.74;100.00;98555.44;4251372;33;20080;-72
2022/06/01 04:21:04;;;;;;;2.00;1.90;;;;;;;13.44;100.00;98505.06;4255758;33;20078;-73
2022/06/01 04:23:30;;;;;;;1.90;1.80;;;;;;;13.72;100.00;98538.69;4254263;33;20046;-71
2022/06/01 04:25:57;;;;;;;2.20;1.95;;;;;;;13.76;100.00;98539.72;4257419;33;20061;-71
2022/06/01 04:28:23;;;;;;;1.62;1.52;;;;;;;13.68;100.00;98539.53;4257220;33;20051;-72
2022/06/01 04:30:50;;;;;;;1.92;1.80;;;;;;;13.56;100.00;98523.66;4240650;33;20060;-71
2022/06/01 04:33:17;;;;;;;1.70;1.60;;;;;;;13.70;100.00;98511.09;4229614;33;20050;-74
2022/06/01 04:35:43;;;;;;;1.70;1.60;;;;;;;13.88;100.00;98519.62;4241393;33;20100;-71
2022/06/01 04:38:12;;;;;;;2.28;1.55;;;;;;;13.92;100.00;98516.06;4255019;33;20088;-73
2022/06/01 04:40:41;;;;;;;4.93;3.78;;;;;;;13.87;100.00;98516.09;4245760;33;20396;-72
2022/06/01 04:43:08;;;;;;;1.92;1.80;;;;;;;13.97;100.00;98515.22;4241392;33;20437;-73
2022/06/01 04:45:34;;;;;;;1.45;1.45;;;;;;;13.63;100.00;98476.25;4241497;33;20081;-74
2022/06/01 04:48:01;;;;;;;2.90;2.70;;;;;;;13.90;100.00;98522.87;4241039;33;20046;-73
2022/06/01 04:50:27;;;;;;;2.12;2.00;;;;;;;13.83;100.00;98514.25;4229449;33;20052;-72
2022/06/01 04:52:53;;;;;;;3.90;2.10;;;;;;;13.46;100.00;98440.69;4244274;33;20042;-72
2022/06/01 04:55:21;;;;;;;1.98;1.85;;;;;;;13.76;100.00;98499.16;4229736;33;20079;-72
2022/06/01 04:57:47;;;;;;;1.95;1.85;;;;;;;13.92;100.00;98507.13;4227827;33;20479;-73
2022/06/01 05:00:14;;;;;;;2.15;1.85;;;;;;;13.65;100.00;98470.56;4232870;33;20119;-73
2022/06/01 05:02:42;;;;;;;1.80;1.77;;;;;;;13.74;100.00;98493.22;4255961;33;20079;-71
2022/06/01 05:05:08;;;;;;;1.17;1.17;;;;;;;13.81;100.00;98496.38;4256429;33;20059;-72
2022/06/01 05:07:35;;;;;;;1.70;1.60;;;;;;;13.73;100.00;98486.19;4242321;33;20060;-72
2022/06/01 05:10:03;;;;;;;1.55;1.45;;;;;;;13.90;100.00;98498.50;4239835;33;20384;-72
2022/06/01 05:12:29;;;;;;;3.47;3.12;;;;;;;13.95;100.00;98501.16;4242179;33;20072;-72
2022/06/01 05:14:55;;;;;;;1.40;1.40;;;;;;;13.83;100.00;98498.81;4242391;33;20045;-72
2022/06/01 05:17:22;;;;;;;3.87;1.70;;;;;;;13.74;100.00;98501.34;4229326;33;20047;-72
2022/06/01 05:19:48;;;;;;;2.12;2.03;;;;;;;13.89;100.00;98494.97;4253015;33;20072;-72
2022/06/01 05:22:15;;;;;;;1.10;1.10;;;;;;;13.99;100.00;98496.78;4243635;33;20119;-71
2022/06/01 05:24:41;;;;;;;1.35;1.30;;;;;;;14.02;100.00;98507.03;4236061;33;20366;-70
2022/06/01 05:27:13;;;;;;;;;;;;;;;14.05;100.00;98501.06;4249324;33;20101;-72
2022/06/01 05:29:40;;;;;;;1.65;1.55;;;;;;;14.25;100.00;98499.22;4252841;33;19955;-72
2022/06/01 05:32:13;;;;;;;1.73;1.37;;;;;;;14.23;100.00;98499.53;4246901;33;20412;-71
2022/06/01 05:34:40;;;;;;;1.40;1.30;;;;;;;14.11;100.00;98499.91;4249517;33;20033;-72
2022/06/01 05:37:06;;;;;;;1.70;1.60;;;;;;;14.17;100.00;98509.59;4253476;33;20087;-71
2022/06/01 05:39:32;;;;;;;1.70;1.60;;;;;;;14.06;100.00;98508.09;4238840;33;20068;-71
2022/06/01 05:41:59;;;;;;;1.95;1.83;;;;;;;14.09;100.00;98512.94;4228909;33;20042;-72
2022/06/01 05:44:26;;;;;;;5.75;2.10;;;;;;;14.02;100.00;98520.56;4245970;33;20084;-72
2022/06/01 05:46:54;;;;;;;2.37;1.70;;;;;;;14.10;100.00;98519.16;4253361;33;21392;-72
2022/06/01 05:49:20;;;;;;;2.28;2.03;;;;;;;14.10;100.00;98524.56;4241326;33;20061;-74
2022/06/01 05:51:47;;;;;;;2.95;2.47;;;;;;;13.88;100.00;98519.62;4239726;33;20065;-74
2022/06/01 05:54:13;;;;;;;2.22;2.03;;;;;;;13.68;100.00;98480.81;4241473;33;20049;-77
2022/06/01 05:56:40;;;;;;;4.05;2.40;;;;;;;13.56;100.00;98462.25;4242143;33;20038;-80
2022/06/01 05:59:07;;;;;;;5.40;2.45;;;;;;;13.59;100.00;98477.09;4235911;33;20064;-82
2022/06/01 06:01:34;;;;;;;2.33;2.10;;;;;;;13.65;100.00;98478.69;4231082;33;20060;-81
2022/06/01 06:04:01;;;;;;;2.58;2.35;;;;;;;13.36;100.00;98476.75;4228469;33;20042;-83
2022/06/01 06:06:28;;;;;;;7.68;2.15;;;;;;;13.66;100.00;98530.87;4198865;34;20058;-80
2022/06/01 06:09:02;;;;;;;3.10;2.50;;;;;;;13.70;100.00;98527.31;4225690;33;20200;-81
2022/06/01 06:11:32;;;;;;;8.13;2.47;;;;;;;13.97;100.00;98536.84;4234239;33;20055;-81
2022/06/01 06:13:59;;;;;;;7.40;2.67;;;;;;;14.09;100.00;98539.22;4214284;33;20061;-81
2022/06/01 06:16:29;;;;;;;6.10;2.62;;;;;;;13.53;100.00;98491.75;4221604;33;20085;-81
2022/06/01 06:18:56;;;;;;;5.22;3.30;;;;;;;14.14;100.00;98531.84;4232625;33;20042;-81
2022/06/01 06:21:28;;;;;;;3.10;2.80;;;;;;;14.48;100.00;98539.06;4226491;33;20038;-81
2022/06/01 06:24:09;;;;;;;2.33;2.22;;;;;;;14.32;100.00;98521.38;4224867;33;20416;-80
2022/06/01 06:26:39;;;;;;;3.42;2.15;;;;;;;14.08;100.00;98543.78;4228917;33;20157;-81
2022/06/01 06:29:08;;;;;;;3.03;2.28;;;;;;;14.14;100.00;98499.34;4233037;33;20080;-81
2022/06/01 06:31:35;;;;;;;4.37;1.92;;;;;;;14.30;100.00;98539.81;4231378;33;20054;-81
2022/06/01 06:34:03;;;;;;;8.18;2.70;;;;;;;14.04;100.00;98531.09;4224880;33;20051;-81
2022/06/01 06:36:29;;;;;;;2.53;2.33;;;;;;;14.33;100.00;98533.84;4236453;33;20039;-80
2022/06/01 06:39:03;;;;;;;2.90;2.70;;;;;;;14.25;100.00;98499.22;4234503;33;20054;-79
2022/06/01 06:41:29;;;;;;;4.05;2.28;;;;;;;14.70;100.00;98544.00;4238753;33;20066;-80
2022/06/01 06:43:56;;;;;;;3.45;2.20;;;;;;;14.46;100.00;98497.13;4223663;33;20068;-80
2022/06/01 06:46:23;;;;;;;3.15;2.62;;;;;;;14.30;100.00;98540.63;4226488;33;20067;-80
2022/06/01 06:48:51;;;;;;;10.00;5.78;;;;;;;14.38;100.00;98544.59;4232790;33;20054;-82
2022/06/01 06:51:19;;;;;;;6.35;2.33;;;;;;;14.79;100.00;98541.47;4237039;33;20050;-80
2022/06/01 06:53:46;;;;;;;2.15;2.05;;;;;;;14.54;100.00;98539.84;4224404;33;20090;-81
2022/06/01 06:56:15;;;;;;;2.67;2.30;;;;;;;14.54;100.00;98546.06;4228699;33;20066;-81
2022/06/01 06:58:41;;;;;;;3.25;2.28;;;;;;;14.65;100.00;98548.69;4222458;34;20084;-81
2022/06/01 07:01:08;;;;;;;3.22;2.20;;;;;;;14.52;100.00;98531.19;4222720;34;20474;-81
2022/06/01 07:03:35;;;;;;;2.53;2.40;;;;;;;14.53;100.00;98544.47;4223924;34;20413;-81
2022/06/01 07:06:12;;;;;;;5.00;2.33;;;;;;;14.58;100.00;98540.06;4224413;34;20208;-81
2022/06/01 07:08:50;;;;;;;2.75;2.17;;;;;;;14.61;100.00;98551.16;4222957;34;20064;-81
2022/06/01 07:11:19;;;;;;;2.58;2.37;;;;;;;14.41;100.00;98514.25;4212687;34;20035;-80
2022/06/01 07:13:50;;;;;;;2.17;2.03;;;;;;;14.85;100.00;98561.19;4225341;34;20038;-79
2022/06/01 07:16:20;;;;;;;5.07;2.37;;;;;;;14.92;100.00;98522.87;4223420;33;20076;-79
2022/06/01 07:18:49;;;;;;;2.40;2.00;;;;;;;15.03;100.00;98525.19;4231325;33;20087;-80
2022/06/01 07:21:18;;;;;;;2.45;2.35;;;;;;;14.97;100.00;98563.50;4238048;33;20086;-79
2022/06/01 07:23:45;;;;;;;2.10;2.00;;;;;;;14.53;100.00;98536.31;4238362;33;20406;-79
2022/06/01 07:26:23;;;;;;;1.80;1.70;;;;;;;14.93;100.00;98568.66;4224480;33;20054;-80
2022/06/01 07:28:50;;;;;;;1.70;1.60;;;;;;;15.00;100.00;98525.78;4238281;33;20076;-80
2022/06/01 07:31:17;;;;;;;3.58;2.00;;;;;;;14.51;100.00;98562.88;4237423;33;20055;-80
2022/06/01 07:33:44;;;;;;;3.53;1.75;;;;;;;14.88;100.00;98574.97;4233324;33;20055;-80
2022/06/01 07:36:13;;;;;;;1.90;1.80;;;;;;;14.87;100.00;98565.22;4239253;33;20080;-80
2022/06/01 07:44:22;;;;;;;2.00;1.90;;;;;;;15.07;100.00;98526.19;4236958;33;20065;-80
2022/06/01 07:46:48;;;;;;;1.50;1.50;;;;;;;15.18;100.00;98526.88;4241738;33;20042;-79
2022/06/01 07:49:16;;;;;;;6.47;1.77;;;;;;;14.87;100.00;98535.41;4240560;33;20111;-79
2022/06/01 07:51:43;;;;;;;1.48;1.48;;;;;;;15.46;100.00;98584.00;4241802;33;20388;-76
2022/06/01 07:54:09;;;;;;;1.73;1.65;;;;;;;15.29;100.00;98538.41;4241173;33;20068;-78
2022/06/01 07:56:36;;;;;;;2.35;1.90;;;;;;;15.43;100.00;98538.47;4228897;33;20368;-76
2022/06/01 07:59:05;;;;;;;5.72;1.85;;;;;;;15.71;100.00;98576.59;4227507;33;20068;-78
2022/06/01 08:01:32;;;;;;;4.60;3.67;;;;;;;15.68;100.00;98577.97;4224837;33;20047;-78
2022/06/01 08:04:04;;;;;;;1.48;1.37;;;;;;;15.61;100.00;98529.50;4226555;33;20397;-77
2022/06/01 08:06:33;;;;;;;1.75;1.65;;;;;;;15.81;100.00;98571.03;4228423;33;20055;-75
2022/06/01 08:09:00;;;;;;;1.23;1.23;;;;;;;15.79;100.00;98565.09;4231186;33;20055;-77
2022/06/01 08:14:18;;;;;;;4.05;2.12;;;;;;;15.84;100.00;98573.16;4227833;34;20084;-77
2022/06/01 08:16:45;;;;;;;2.10;2.00;;;;;;;15.77;100.00;98548.31;4227058;34;20082;-75
2022/06/01 08:19:13;;;;;;;1.58;1.58;;;;;;;16.05;100.00;98556.53;4223911;33;20041;-75
2022/06/01 08:21:46;;;;;;;1.52;1.48;;;;;;;16.16;100.00;98560.69;4241351;33;20465;-75
2022/06/01 08:24:13;;;;;;;2.35;1.60;;;;;;;15.43;100.00;98519.50;4240163;33;20068;-75
2022/06/01 08:26:40;;;;;;;2.33;2.22;;;;;;;15.90;100.00;98557.59;4231894;33;20405;-72
2022/06/01 08:29:07;;;;;;;1.83;1.55;;;;;;;16.25;100.00;98572.50;4225738;33;20061;-74
2022/06/01 08:31:34;;;;;;;11.63;2.22;;;;;;;16.36;100.00;98569.59;4222092;33;20569;-72
2022/06/01 08:34:03;;;;;;;1.62;1.52;;;;;;;16.50;100.00;98562.28;4241385;33;20042;-72
2022/06/01 08:36:31;;;;;;;1.20;1.08;;;;;;;16.74;100.00;98572.16;4233210;33;20361;-73
2022/06/01 08:38:57;;;;;;;1.77;1.35;;;;;;;16.88;100.00;98564.81;4234484;33;20042;-72
2022/06/01 08:41:30;;;;;;;1.37;1.35;;;;;;;16.66;100.00;98541.84;4231425;33;20193;-72
2022/06/01 08:44:02;;;;;;;1.50;1.40;;;;;;;16.78;100.00;98538.63;4221746;34;20047;-73
2022/06/01 08:46:29;;;;;;;2.70;2.20;;;;;;;17.25;100.00;98582.03;4230085;33;20072;-73
2022/06/01 08:49:09;;;;;;;2.85;1.10;;;;;;;17.48;100.00;98573.94;4232624;33;20038;-73
2022/06/01 08:51:36;;;;;;;1.00;1.00;;;;;;;17.38;100.00;98534.16;4225027;33;20066;-74
2022/06/01 08:54:03;;;;;;;3.92;1.33;;;;;;;17.31;100.00;98550.91;4233542;33;20061;-74
2022/06/01 08:56:55;;;;;;;1.08;1.08;;;;;;;17.83;100.00;98571.50;4230981;33;20034;-73
2022/06/01 08:59:40;;;;;;;2.00;1.08;;;;;;;17.52;100.00;98583.06;4229537;33;20090;-72
2022/06/01 09:02:41;;;;;;;1.37;1.20;;;;;;;17.57;100.00;98536.72;4233173;33;20373;-73
2022/06/01 09:05:19;;;;;;;2.15;1.20;;;;;;;18.18;100.00;98577.22;4234472;33;20034;-75
2022/06/01 09:07:58;;;;;;;1.15;1.10;;;;;;;17.98;100.00;98573.88;4219832;33;20423;-75
2022/06/01 09:10:51;;;;;;;1.52;1.10;;;;;;;18.27;100.00;98567.19;4221860;33;20066;-75
2022/06/01 09:13:25;;;;;;;1.52;1.45;;;;;;;18.05;100.00;98571.53;4218691;33;20370;-78
2022/06/01 09:15:54;;;;;;;1.95;1.80;;;;;;;17.96;100.00;98570.66;4239593;33;20923;-79
2022/06/01 09:18:26;;;;;;;1.95;1.83;;;;;;;18.48;100.00;98581.09;4228458;33;20078;-78
2022/06/01 09:23:42;;;;;;;1.55;1.45;;;;;;;18.75;100.00;98574.63;4237262;33;20079;-78
2022/06/01 09:26:23;;;;;;;1.25;1.00;;;;;;;18.55;100.00;98569.72;4232340;33;20061;-78
2022/06/01 09:28:54;;;;;;;1.23;1.23;;;;;;;18.74;100.00;98578.47;4229116;33;20394;-81
2022/06/01 09:31:29;;;;;;;3.00;1.50;;;;;;;18.67;100.00;98539.97;4222080;33;20066;-80
2022/06/01 09:34:14;;;;;;;1.00;1.00;;;;;;;18.93;100.00;98582.91;4231289;33;20042;-79
2022/06/01 09:37:09;;;;;;;3.25;0.95;;;;;;;19.00;100.00;98577.78;4229742;33;20186;-80
2022/06/01 09:39:38;;;;;;;0.88;0.88;;;;;;;19.10;100.00;98580.22;4233922;33;20099;-80
2022/06/01 09:42:14;;;;;;;1.02;1.02;;;;;;;19.09;100.00;98589.53;4227450;33;20050;-80
2022/06/01 09:44:48;;;;;;;1.40;1.30;;;;;;;18.74;100.00;98586.66;4229245;33;20051;-79
2022/06/01 09:47:28;;;;;;;1.00;1.00;;;;;;;19.17;100.00;98594.19;4232245;33;20042;-79
2022/06/01 09:49:59;;;;;;;0.90;0.90;;;;;;;18.58;100.00;98559.00;4237047;33;20798;-79
2022/06/01 09:52:40;;;;;;;7.25;1.30;;;;;;;18.80;100.00;98588.12;4236850;33;20058;-79
2022/06/01 09:55:27;;;;;;;1.60;1.37;;;;;;;18.50;100.00;98552.37;4225466;33;20398;-80
2022/06/01 09:58:04;;;;;;;1.10;1.10;;;;;;;18.91;100.00;98587.84;4231016;33;20047;-79
2022/06/01 10:06:28;;;;;;;6.72;1.10;;;;;;;19.11;100.00;98595.47;4224418;34;20036;-79
2022/06/01 10:08:59;;;;;;;4.93;2.47;;;;;;;19.36;100.00;98606.78;4218070;33;20043;-76
2022/06/01 10:11:33;;;;;;;0.90;0.90;;;;;;;19.52;100.00;98590.75;4227928;33;20051;-79
2022/06/01 10:14:05;;;;;;;1.02;1.02;;;;;;;19.30;98.01;98613.50;4223834;34;20057;-78
2022/06/01 10:16:40;;;;;;;;;;;;;;;19.19;94.25;98610.25;4234409;33;20909;-74
2022/06/01 10:19:11;;;;;;;0.98;0.93;;;;;;;19.35;97.39;98607.88;4232203;33;19975;-73
2022/06/01 10:22:08;;;;;;;1.20;1.12;;;;;;;19.72;100.00;98597.50;4230317;33;20031;-74
2022/06/01 10:24:47;;;;;;;1.20;1.10;;;;;;;19.58;98.21;98562.97;4225982;33;20172;-73
2022/06/01 10:27:20;;;;;;;10.38;1.05;;;;;;;19.93;96.66;98573.91;4224155;33;20042;-74
2022/06/01 10:30:07;;;;;;;0.90;0.90;;;;;;;19.91;95.39;98559.78;4226306;34;20042;-74
2022/06/01 10:32:47;;;;;;;2.08;0.98;;;;;;;19.80;65.51;98618.59;4228657;33;20081;-73
2022/06/01 10:35:26;;;;;;;0.95;0.95;;;;;;;19.76;73.44;98634.00;4232998;33;20080;-74
2022/06/01 10:38:06;;;;;;;2.20;1.10;;;;;;;19.60;78.48;98609.84;4239086;33;20046;-75
2022/06/01 10:40:43;;;;;;;0.90;0.90;;;;;;;19.70;83.93;98580.63;4236903;33;20042;-75
2022/06/01 10:43:31;;;;;;;1.25;1.15;;;;;;;19.78;82.69;98621.66;4239263;33;20042;-74
2022/06/01 10:46:05;;;;;;;0.90;0.90;;;;;;;20.19;85.75;98608.59;4238852;33;20320;-73
2022/06/01 10:48:39;;;;;;;2.92;0.90;;;;;;;19.99;75.51;98625.66;4237636;33;20038;-74
2022/06/01 10:51:15;;;;;;;10.95;1.30;;;;;;;20.01;80.98;98626.12;4239655;33;20058;-74
2022/06/01 10:53:49;;;;;;;1.20;1.20;;;;;;;20.13;78.85;98609.88;4240477;33;20072;-74
2022/06/01 10:56:20;;;;;;;1.00;1.00;;;;;;;20.11;72.33;98607.47;4237516;33;20395;-74
2022/06/01 10:58:49;;;;;;;3.05;0.98;;;;;;;20.39;71.42;98639.94;4239097;33;20071;-73
2022/06/01 11:01:53;;;;;;;1.12;1.08;;;;;;;20.50;70.04;98591.16;4237107;33;20680;-74
2022/06/01 11:04:44;;;;;;;1.10;1.10;;;;;;;20.53;68.66;98595.97;4235576;33;20030;-74
2022/06/01 11:07:22;;;;;;;1.02;1.02;;;;;;;20.96;61.63;98625.12;4221460;33;20359;-74
2022/06/01 11:09:58;;;;;;;0.80;0.80;;;;;;;20.42;55.69;98627.53;4236995;33;20041;-74
2022/06/01 11:12:43;;;;;;;0.98;0.98;;;;;;;21.11;54.52;98614.75;4237106;33;20064;-73
2022/06/01 11:15:23;;;;;;;2.95;1.00;;;;;;;20.78;52.61;98568.91;4226614;33;20924;-74
2022/06/01 11:18:03;;;;;;;1.75;1.65;;;;;;;21.42;55.31;98576.09;4225722;34;20516;-74
2022/06/01 11:20:58;;;;;;;1.10;1.00;;;;;;;21.95;55.40;98636.81;4223873;34;20073;-74
2022/06/01 11:23:58;;;;;;;1.33;1.00;;;;;;;21.11;55.03;98636.66;4227796;33;20046;-75
2022/06/01 11:26:59;;;;;;;0.77;0.77;;;;;;;20.55;57.37;98623.81;4232720;33;20392;-73
2022/06/01 11:29:43;;;;;;;5.30;1.35;;;;;;;21.39;55.55;98629.59;4217011;34;20069;-73
2022/06/01 11:32:27;;;;;;;5.05;1.17;;;;;;;21.54;52.57;98657.56;4234946;33;20042;-73
2022/06/01 11:35:06;;;;;;;2.05;1.00;;;;;;;20.75;58.43;98602.38;4232704;33;20377;-73
2022/06/01 11:37:51;;;;;;;1.40;1.00;;;;;;;20.56;54.99;98654.69;4226190;33;20058;-74
2022/06/01 11:40:29;;;;;;;0.82;0.82;;;;;;;21.01;48.75;98671.50;4248868;33;20086;-73
2022/06/01 11:43:02;;;;;;;0.70;0.70;;;;;;;20.49;49.23;98622.37;4246246;33;20088;-72
2022/06/01 11:45:33;;;;;;;6.93;1.10;;;;;;;20.39;52.91;98595.38;4232954;33;20042;-72
2022/06/01 11:48:07;;;;;;;1.98;0.95;;;;;;;20.99;45.50;98671.00;4239309;33;20055;-73
2022/06/01 11:51:04;;;;;;;1.35;0.80;;;;;;;21.41;44.61;98624.59;4248972;33;20054;-73
2022/06/01 11:54:00;;;;;;;1.55;1.10;;;;;;;21.37;40.69;98634.59;4235948;33;20109;-73
2022/06/01 11:56:54;;;;;;;2.28;1.00;;;;;;;21.70;41.13;98666.81;4237994;33;20107;-73
2022/06/01 11:59:28;;;;;;;1.67;1.00;;;;;;;21.87;41.58;98643.16;4229299;33;20076;-73
2022/06/01 12:02:48;;;;;;;4.65;1.52;;;;;;;22.36;42.24;98635.19;4227657;33;20225;-74
2022/06/01 12:05:39;;;;;;;0.98;0.98;;;;;;;23.34;39.34;98633.75;4227603;33;20043;-74
2022/06/01 12:08:18;;;;;;;7.50;1.00;;;;;;;21.32;37.87;98610.16;4209473;34;20076;-73
2022/06/01 12:10:57;;;;;;;6.78;1.00;;;;;;;20.47;42.84;98658.25;4220314;33;20062;-72
2022/06/01 12:13:25;;;;;;;8.38;1.10;;;;;;;20.95;41.29;98615.34;4215988;33;20685;-73
2022/06/01 12:16:04;;;;;;;2.37;1.00;;;;;;;21.83;42.09;98656.75;4374313;28;20050;-81